sensor_id;sensor_type;location;lat;lon;timestamp;P1;durP1;ratioP1;P2;durP2;ratioP2
33696;SDS011;20031;43.416;23.232;2023-01-05T00:02:23;56.65;;;32.00;;
33696;SDS011;20031;43.416;23.232;2023-01-05T00:04:49;56.55;;;31.70;;
33696;SDS011;20031;43.416;23.232;2023-01-05T00:07:14;54.95;;;31.95;;
33696;SDS011;20031;43.416;23.232;2023-01-05T00:09:40;48.45;;;29.23;;
33696;SDS011;20031;43.416;23.232;2023-01-05T00:12:05;42.92;;;26.92;;
33696;SDS011;20031;43.416;23.232;2023-01-05T00:14:50;39.53;;;24.38;;
33696;SDS011;20031;43.416;23.232;2023-01-05T00:17:34;42.97;;;22.92;;
33696;SDS011;20031;43.416;23.232;2023-01-05T00:20:19;36.15;;;21.80;;
33696;SDS011;20031;43.416;23.232;2023-01-05T00:23:04;38.53;;;21.60;;
33696;SDS011;20031;43.416;23.232;2023-01-05T00:25:31;34.20;;;20.23;;
33696;SDS011;20031;43.416;23.232;2023-01-05T00:28:00;33.90;;;20.90;;
33696;SDS011;20031;43.416;23.232;2023-01-05T00:30:33;32.65;;;19.85;;
33696;SDS011;20031;43.416;23.232;2023-01-05T00:33:03;33.80;;;20.38;;
33696;SDS011;20031;43.416;23.232;2023-01-05T00:35:32;36.38;;;20.13;;
33696;SDS011;20031;43.416;23.232;2023-01-05T00:37:58;33.25;;;20.52;;
33696;SDS011;20031;43.416;23.232;2023-01-05T00:40:23;35.22;;;21.08;;
33696;SDS011;20031;43.416;23.232;2023-01-05T00:42:48;32.85;;;19.85;;
33696;SDS011;20031;43.416;23.232;2023-01-05T00:45:15;39.20;;;19.80;;
33696;SDS011;20031;43.416;23.232;2023-01-05T00:47:41;37.17;;;20.23;;
33696;SDS011;20031;43.416;23.232;2023-01-05T00:50:08;34.05;;;20.13;;
33696;SDS011;20031;43.416;23.232;2023-01-05T00:52:37;35.17;;;19.25;;
33696;SDS011;20031;43.416;23.232;2023-01-05T00:55:02;33.58;;;19.58;;
33696;SDS011;20031;43.416;23.232;2023-01-05T00:57:28;34.47;;;19.45;;
33696;SDS011;20031;43.416;23.232;2023-01-05T00:59:53;37.75;;;18.52;;
33696;SDS011;20031;43.416;23.232;2023-01-05T01:02:19;37.38;;;20.08;;
33696;SDS011;20031;43.416;23.232;2023-01-05T01:04:44;30.63;;;19.25;;
33696;SDS011;20031;43.416;23.232;2023-01-05T01:07:09;37.03;;;19.50;;
33696;SDS011;20031;43.416;23.232;2023-01-05T01:09:35;32.30;;;19.13;;
33696;SDS011;20031;43.416;23.232;2023-01-05T01:12:01;32.35;;;19.52;;
33696;SDS011;20031;43.416;23.232;2023-01-05T01:14:27;30.55;;;19.48;;
33696;SDS011;20031;43.416;23.232;2023-01-05T01:16:53;33.00;;;19.70;;
33696;SDS011;20031;43.416;23.232;2023-01-05T01:19:19;33.97;;;19.95;;
33696;SDS011;20031;43.416;23.232;2023-01-05T01:21:47;32.55;;;20.23;;
33696;SDS011;20031;43.416;23.232;2023-01-05T01:24:20;31.15;;;19.83;;
33696;SDS011;20031;43.416;23.232;2023-01-05T01:26:51;33.25;;;20.17;;
33696;SDS011;20031;43.416;23.232;2023-01-05T01:29:17;34.22;;;20.65;;
33696;SDS011;20031;43.416;23.232;2023-01-05T01:31:45;35.08;;;19.75;;
33696;SDS011;20031;43.416;23.232;2023-01-05T01:34:12;36.60;;;20.25;;
33696;SDS011;20031;43.416;23.232;2023-01-05T01:36:37;37.33;;;19.90;;
33696;SDS011;20031;43.416;23.232;2023-01-05T01:39:03;31.67;;;19.33;;
33696;SDS011;20031;43.416;23.232;2023-01-05T01:41:28;31.70;;;19.55;;
33696;SDS011;20031;43.416;23.232;2023-01-05T01:43:54;32.53;;;19.38;;
33696;SDS011;20031;43.416;23.232;2023-01-05T01:46:21;33.05;;;19.40;;
33696;SDS011;20031;43.416;23.232;2023-01-05T01:51:19;33.25;;;20.88;;
33696;SDS011;20031;43.416;23.232;2023-01-05T01:53:51;33.33;;;19.88;;
33696;SDS011;20031;43.416;23.232;2023-01-05T01:56:21;32.17;;;19.83;;
33696;SDS011;20031;43.416;23.232;2023-01-05T01:58:49;34.03;;;20.38;;
33696;SDS011;20031;43.416;23.232;2023-01-05T02:01:16;34.20;;;20.15;;
33696;SDS011;20031;43.416;23.232;2023-01-05T02:03:41;38.55;;;20.40;;
33696;SDS011;20031;43.416;23.232;2023-01-05T02:06:07;34.05;;;19.77;;
33696;SDS011;20031;43.416;23.232;2023-01-05T02:08:34;35.35;;;20.15;;
33696;SDS011;20031;43.416;23.232;2023-01-05T02:11:14;39.10;;;21.70;;
33696;SDS011;20031;43.416;23.232;2023-01-05T02:14:09;47.30;;;21.05;;
33696;SDS011;20031;43.416;23.232;2023-01-05T02:22:00;34.15;;;19.85;;
33696;SDS011;20031;43.416;23.232;2023-01-05T02:35:46;31.83;;;19.30;;
33696;SDS011;20031;43.416;23.232;2023-01-05T02:41:30;32.63;;;18.42;;
33696;SDS011;20031;43.416;23.232;2023-01-05T02:43:57;33.17;;;19.42;;
33696;SDS011;20031;43.416;23.232;2023-01-05T02:46:24;35.20;;;19.35;;
33696;SDS011;20031;43.416;23.232;2023-01-05T02:48:50;35.65;;;19.75;;
33696;SDS011;20031;43.416;23.232;2023-01-05T02:54:23;33.40;;;19.50;;
33696;SDS011;20031;43.416;23.232;2023-01-05T02:56:56;33.35;;;19.25;;
33696;SDS011;20031;43.416;23.232;2023-01-05T02:59:29;32.33;;;18.63;;
33696;SDS011;20031;43.416;23.232;2023-01-05T03:02:08;32.55;;;18.58;;
33696;SDS011;20031;43.416;23.232;2023-01-05T03:04:47;29.30;;;17.98;;
33696;SDS011;20031;43.416;23.232;2023-01-05T03:07:23;29.05;;;17.67;;
33696;SDS011;20031;43.416;23.232;2023-01-05T03:09:51;28.98;;;18.10;;
33696;SDS011;20031;43.416;23.232;2023-01-05T03:17:47;29.77;;;18.63;;
33696;SDS011;20031;43.416;23.232;2023-01-05T03:20:17;27.30;;;16.92;;
33696;SDS011;20031;43.416;23.232;2023-01-05T03:22:47;31.70;;;17.17;;
33696;SDS011;20031;43.416;23.232;2023-01-05T03:25:32;27.40;;;16.40;;
33696;SDS011;20031;43.416;23.232;2023-01-05T03:28:22;31.50;;;16.88;;
33696;SDS011;20031;43.416;23.232;2023-01-05T03:31:12;28.42;;;16.70;;
33696;SDS011;20031;43.416;23.232;2023-01-05T03:37:33;31.98;;;17.42;;
33696;SDS011;20031;43.416;23.232;2023-01-05T03:40:04;32.50;;;17.35;;
33696;SDS011;20031;43.416;23.232;2023-01-05T03:42:35;29.10;;;18.73;;
33696;SDS011;20031;43.416;23.232;2023-01-05T03:45:02;32.22;;;18.45;;
33696;SDS011;20031;43.416;23.232;2023-01-05T03:47:28;52.33;;;33.00;;
33696;SDS011;20031;43.416;23.232;2023-01-05T03:49:54;41.70;;;27.33;;
33696;SDS011;20031;43.416;23.232;2023-01-05T03:52:19;38.92;;;22.50;;
33696;SDS011;20031;43.416;23.232;2023-01-05T03:54:45;42.53;;;25.92;;
33696;SDS011;20031;43.416;23.232;2023-01-05T03:57:10;51.05;;;32.70;;
33696;SDS011;20031;43.416;23.232;2023-01-05T03:59:35;52.50;;;33.63;;
33696;SDS011;20031;43.416;23.232;2023-01-05T04:02:01;50.08;;;32.75;;
33696;SDS011;20031;43.416;23.232;2023-01-05T04:04:26;45.08;;;27.98;;
33696;SDS011;20031;43.416;23.232;2023-01-05T04:06:52;37.28;;;23.92;;
33696;SDS011;20031;43.416;23.232;2023-01-05T04:09:17;35.38;;;19.95;;
33696;SDS011;20031;43.416;23.232;2023-01-05T04:11:42;30.05;;;17.77;;
33696;SDS011;20031;43.416;23.232;2023-01-05T04:14:08;25.65;;;16.30;;
33696;SDS011;20031;43.416;23.232;2023-01-05T04:16:33;33.08;;;16.95;;
33696;SDS011;20031;43.416;23.232;2023-01-05T04:18:59;29.40;;;16.83;;
33696;SDS011;20031;43.416;23.232;2023-01-05T04:21:24;31.40;;;19.48;;
33696;SDS011;20031;43.416;23.232;2023-01-05T04:23:50;33.08;;;21.05;;
33696;SDS011;20031;43.416;23.232;2023-01-05T04:26:15;31.77;;;20.02;;
33696;SDS011;20031;43.416;23.232;2023-01-05T04:28:40;30.67;;;17.70;;
33696;SDS011;20031;43.416;23.232;2023-01-05T04:31:06;23.05;;;14.45;;
33696;SDS011;20031;43.416;23.232;2023-01-05T04:33:31;24.42;;;14.60;;
33696;SDS011;20031;43.416;23.232;2023-01-05T04:35:57;24.25;;;14.63;;
33696;SDS011;20031;43.416;23.232;2023-01-05T04:38:22;28.73;;;14.02;;
33696;SDS011;20031;43.416;23.232;2023-01-05T04:40:48;23.13;;;13.90;;
33696;SDS011;20031;43.416;23.232;2023-01-05T04:43:15;25.73;;;14.35;;
33696;SDS011;20031;43.416;23.232;2023-01-05T04:45:41;29.60;;;12.88;;
33696;SDS011;20031;43.416;23.232;2023-01-05T04:48:06;25.98;;;13.57;;
33696;SDS011;20031;43.416;23.232;2023-01-05T04:50:32;38.83;;;13.43;;
33696;SDS011;20031;43.416;23.232;2023-01-05T04:52:57;48.30;;;14.57;;
33696;SDS011;20031;43.416;23.232;2023-01-05T04:55:23;30.85;;;14.95;;
33696;SDS011;20031;43.416;23.232;2023-01-05T04:57:48;35.00;;;15.02;;
33696;SDS011;20031;43.416;23.232;2023-01-05T05:00:13;34.25;;;15.27;;
33696;SDS011;20031;43.416;23.232;2023-01-05T05:02:39;28.58;;;14.35;;
33696;SDS011;20031;43.416;23.232;2023-01-05T05:05:04;31.23;;;15.95;;
33696;SDS011;20031;43.416;23.232;2023-01-05T05:07:30;32.65;;;14.55;;
33696;SDS011;20031;43.416;23.232;2023-01-05T05:09:55;32.55;;;14.02;;
33696;SDS011;20031;43.416;23.232;2023-01-05T05:12:21;22.33;;;13.10;;
33696;SDS011;20031;43.416;23.232;2023-01-05T05:14:46;22.38;;;14.00;;
33696;SDS011;20031;43.416;23.232;2023-01-05T05:17:12;21.67;;;13.95;;
33696;SDS011;20031;43.416;23.232;2023-01-05T05:19:38;24.00;;;13.23;;
33696;SDS011;20031;43.416;23.232;2023-01-05T05:22:04;20.20;;;12.82;;
33696;SDS011;20031;43.416;23.232;2023-01-05T05:24:30;21.55;;;12.73;;
33696;SDS011;20031;43.416;23.232;2023-01-05T05:26:55;100.90;;;40.72;;
33696;SDS011;20031;43.416;23.232;2023-01-05T05:29:24;54.88;;;23.65;;
33696;SDS011;20031;43.416;23.232;2023-01-05T05:31:49;63.95;;;25.77;;
33696;SDS011;20031;43.416;23.232;2023-01-05T05:34:16;69.32;;;26.35;;
33696;SDS011;20031;43.416;23.232;2023-01-05T05:36:41;35.13;;;15.55;;
33696;SDS011;20031;43.416;23.232;2023-01-05T05:39:07;28.63;;;14.75;;
33696;SDS011;20031;43.416;23.232;2023-01-05T05:41:35;27.90;;;14.30;;
33696;SDS011;20031;43.416;23.232;2023-01-05T05:44:00;21.25;;;13.65;;
33696;SDS011;20031;43.416;23.232;2023-01-05T05:46:26;28.98;;;14.73;;
33696;SDS011;20031;43.416;23.232;2023-01-05T05:48:53;34.88;;;19.63;;
33696;SDS011;20031;43.416;23.232;2023-01-05T05:51:20;33.25;;;21.30;;
33696;SDS011;20031;43.416;23.232;2023-01-05T05:53:45;34.60;;;19.20;;
33696;SDS011;20031;43.416;23.232;2023-01-05T05:56:11;32.72;;;18.30;;
33696;SDS011;20031;43.416;23.232;2023-01-05T05:58:36;36.28;;;16.17;;
33696;SDS011;20031;43.416;23.232;2023-01-05T06:01:02;23.88;;;15.00;;
33696;SDS011;20031;43.416;23.232;2023-01-05T06:03:27;23.75;;;13.73;;
33696;SDS011;20031;43.416;23.232;2023-01-05T06:05:53;30.60;;;13.95;;
33696;SDS011;20031;43.416;23.232;2023-01-05T06:08:18;22.45;;;13.15;;
33696;SDS011;20031;43.416;23.232;2023-01-05T06:10:44;25.77;;;13.63;;
33696;SDS011;20031;43.416;23.232;2023-01-05T06:13:09;22.70;;;11.27;;
33696;SDS011;20031;43.416;23.232;2023-01-05T06:15:34;27.42;;;12.32;;
33696;SDS011;20031;43.416;23.232;2023-01-05T06:18:00;20.00;;;10.93;;
33696;SDS011;20031;43.416;23.232;2023-01-05T06:20:25;18.20;;;11.73;;
33696;SDS011;20031;43.416;23.232;2023-01-05T06:22:51;21.60;;;10.82;;
33696;SDS011;20031;43.416;23.232;2023-01-05T06:25:16;24.63;;;11.85;;
33696;SDS011;20031;43.416;23.232;2023-01-05T06:27:42;20.85;;;11.50;;
33696;SDS011;20031;43.416;23.232;2023-01-05T06:30:07;23.27;;;11.52;;
33696;SDS011;20031;43.416;23.232;2023-01-05T06:32:33;25.02;;;12.73;;
33696;SDS011;20031;43.416;23.232;2023-01-05T06:34:59;23.80;;;13.82;;
33696;SDS011;20031;43.416;23.232;2023-01-05T06:37:24;30.27;;;15.70;;
33696;SDS011;20031;43.416;23.232;2023-01-05T06:39:50;23.77;;;13.77;;
33696;SDS011;20031;43.416;23.232;2023-01-05T06:42:15;24.13;;;13.25;;
33696;SDS011;20031;43.416;23.232;2023-01-05T06:44:40;26.23;;;13.13;;
33696;SDS011;20031;43.416;23.232;2023-01-05T06:47:06;24.70;;;12.23;;
33696;SDS011;20031;43.416;23.232;2023-01-05T06:49:32;18.88;;;12.35;;
33696;SDS011;20031;43.416;23.232;2023-01-05T06:51:57;20.23;;;11.88;;
33696;SDS011;20031;43.416;23.232;2023-01-05T06:54:23;21.77;;;12.02;;
33696;SDS011;20031;43.416;23.232;2023-01-05T06:56:48;22.77;;;14.75;;
33696;SDS011;20031;43.416;23.232;2023-01-05T06:59:14;27.88;;;11.85;;
33696;SDS011;20031;43.416;23.232;2023-01-05T07:01:39;21.40;;;11.50;;
33696;SDS011;20031;43.416;23.232;2023-01-05T07:04:05;24.88;;;12.23;;
33696;SDS011;20031;43.416;23.232;2023-01-05T07:06:30;22.05;;;12.18;;
33696;SDS011;20031;43.416;23.232;2023-01-05T07:08:55;24.23;;;12.40;;
33696;SDS011;20031;43.416;23.232;2023-01-05T07:11:21;19.05;;;10.82;;
33696;SDS011;20031;43.416;23.232;2023-01-05T07:13:47;25.80;;;13.48;;
33696;SDS011;20031;43.416;23.232;2023-01-05T07:16:14;18.80;;;11.32;;
33696;SDS011;20031;43.416;23.232;2023-01-05T07:18:41;30.13;;;11.95;;
33696;SDS011;20031;43.416;23.232;2023-01-05T07:21:07;17.75;;;11.35;;
33696;SDS011;20031;43.416;23.232;2023-01-05T07:23:32;19.75;;;10.98;;
33696;SDS011;20031;43.416;23.232;2023-01-05T07:26:01;19.63;;;10.57;;
33696;SDS011;20031;43.416;23.232;2023-01-05T07:28:30;34.20;;;17.58;;
33696;SDS011;20031;43.416;23.232;2023-01-05T07:30:56;48.55;;;23.15;;
33696;SDS011;20031;43.416;23.232;2023-01-05T07:33:22;53.90;;;24.67;;
33696;SDS011;20031;43.416;23.232;2023-01-05T07:35:47;47.92;;;20.85;;
33696;SDS011;20031;43.416;23.232;2023-01-05T07:38:12;105.78;;;38.25;;
33696;SDS011;20031;43.416;23.232;2023-01-05T07:40:38;67.15;;;27.83;;
33696;SDS011;20031;43.416;23.232;2023-01-05T07:43:03;50.10;;;19.98;;
33696;SDS011;20031;43.416;23.232;2023-01-05T07:45:29;29.58;;;12.02;;
33696;SDS011;20031;43.416;23.232;2023-01-05T07:47:55;29.30;;;13.68;;
33696;SDS011;20031;43.416;23.232;2023-01-05T07:50:20;23.92;;;11.50;;
33696;SDS011;20031;43.416;23.232;2023-01-05T07:52:46;35.70;;;11.90;;
33696;SDS011;20031;43.416;23.232;2023-01-05T07:55:11;34.25;;;13.30;;
33696;SDS011;20031;43.416;23.232;2023-01-05T07:57:37;27.42;;;12.70;;
33696;SDS011;20031;43.416;23.232;2023-01-05T08:00:03;31.50;;;13.10;;
33696;SDS011;20031;43.416;23.232;2023-01-05T08:02:29;34.28;;;13.43;;
33696;SDS011;20031;43.416;23.232;2023-01-05T08:04:55;57.75;;;21.65;;
33696;SDS011;20031;43.416;23.232;2023-01-05T08:07:20;40.35;;;22.70;;
33696;SDS011;20031;43.416;23.232;2023-01-05T08:09:46;23.92;;;13.43;;
33696;SDS011;20031;43.416;23.232;2023-01-05T08:12:30;32.13;;;15.10;;
33696;SDS011;20031;43.416;23.232;2023-01-05T08:14:55;23.35;;;12.95;;
33696;SDS011;20031;43.416;23.232;2023-01-05T08:17:21;27.98;;;14.45;;
33696;SDS011;20031;43.416;23.232;2023-01-05T08:19:46;42.08;;;24.33;;
33696;SDS011;20031;43.416;23.232;2023-01-05T08:22:12;26.15;;;14.80;;
33696;SDS011;20031;43.416;23.232;2023-01-05T08:24:37;29.70;;;16.60;;
33696;SDS011;20031;43.416;23.232;2023-01-05T08:27:03;21.88;;;11.90;;
33696;SDS011;20031;43.416;23.232;2023-01-05T08:29:28;27.58;;;13.90;;
33696;SDS011;20031;43.416;23.232;2023-01-05T08:31:54;22.55;;;11.85;;
33696;SDS011;20031;43.416;23.232;2023-01-05T08:34:19;26.65;;;12.77;;
33696;SDS011;20031;43.416;23.232;2023-01-05T08:36:45;33.83;;;12.73;;
33696;SDS011;20031;43.416;23.232;2023-01-05T08:39:11;29.38;;;13.27;;
33696;SDS011;20031;43.416;23.232;2023-01-05T08:41:37;24.45;;;12.43;;
33696;SDS011;20031;43.416;23.232;2023-01-05T08:44:10;26.42;;;12.98;;
33696;SDS011;20031;43.416;23.232;2023-01-05T08:46:37;23.45;;;12.63;;
33696;SDS011;20031;43.416;23.232;2023-01-05T08:49:04;32.00;;;12.70;;
33696;SDS011;20031;43.416;23.232;2023-01-05T08:51:31;36.33;;;13.25;;
33696;SDS011;20031;43.416;23.232;2023-01-05T08:53:56;25.35;;;13.23;;
33696;SDS011;20031;43.416;23.232;2023-01-05T08:56:22;24.75;;;12.30;;
33696;SDS011;20031;43.416;23.232;2023-01-05T08:58:51;36.72;;;14.93;;
33696;SDS011;20031;43.416;23.232;2023-01-05T09:01:20;26.00;;;12.93;;
33696;SDS011;20031;43.416;23.232;2023-01-05T09:03:46;40.13;;;17.48;;
33696;SDS011;20031;43.416;23.232;2023-01-05T09:06:12;41.00;;;16.27;;
33696;SDS011;20031;43.416;23.232;2023-01-05T09:08:39;26.70;;;14.35;;
33696;SDS011;20031;43.416;23.232;2023-01-05T09:13:46;30.00;;;15.27;;
33696;SDS011;20031;43.416;23.232;2023-01-05T09:16:14;30.65;;;14.52;;
33696;SDS011;20031;43.416;23.232;2023-01-05T09:18:41;28.75;;;13.25;;
33696;SDS011;20031;43.416;23.232;2023-01-05T09:21:07;25.02;;;12.43;;
33696;SDS011;20031;43.416;23.232;2023-01-05T09:23:34;31.35;;;11.68;;
33696;SDS011;20031;43.416;23.232;2023-01-05T09:26:02;36.92;;;13.50;;
33696;SDS011;20031;43.416;23.232;2023-01-05T09:28:28;30.33;;;13.57;;
33696;SDS011;20031;43.416;23.232;2023-01-05T09:30:54;23.23;;;11.55;;
33696;SDS011;20031;43.416;23.232;2023-01-05T09:33:19;30.40;;;13.68;;
33696;SDS011;20031;43.416;23.232;2023-01-05T09:35:52;29.63;;;13.32;;
33696;SDS011;20031;43.416;23.232;2023-01-05T09:38:20;24.88;;;12.52;;
33696;SDS011;20031;43.416;23.232;2023-01-05T09:40:47;33.35;;;11.82;;
33696;SDS011;20031;43.416;23.232;2023-01-05T09:43:24;24.80;;;11.77;;
33696;SDS011;20031;43.416;23.232;2023-01-05T09:45:52;23.38;;;11.50;;
33696;SDS011;20031;43.416;23.232;2023-01-05T09:48:19;25.25;;;11.80;;
33696;SDS011;20031;43.416;23.232;2023-01-05T09:50:46;23.58;;;11.50;;
33696;SDS011;20031;43.416;23.232;2023-01-05T09:53:13;25.30;;;11.02;;
33696;SDS011;20031;43.416;23.232;2023-01-05T09:55:41;26.23;;;10.57;;
33696;SDS011;20031;43.416;23.232;2023-01-05T09:58:13;18.77;;;9.85;;
33696;SDS011;20031;43.416;23.232;2023-01-05T10:00:43;29.90;;;12.70;;
33696;SDS011;20031;43.416;23.232;2023-01-05T10:03:26;26.25;;;12.13;;
33696;SDS011;20031;43.416;23.232;2023-01-05T10:05:52;30.13;;;13.25;;
33696;SDS011;20031;43.416;23.232;2023-01-05T10:08:21;40.72;;;16.35;;
33696;SDS011;20031;43.416;23.232;2023-01-05T10:11:06;28.98;;;13.77;;
33696;SDS011;20031;43.416;23.232;2023-01-05T10:16:44;22.75;;;10.75;;
33696;SDS011;20031;43.416;23.232;2023-01-05T10:19:13;19.27;;;9.38;;
33696;SDS011;20031;43.416;23.232;2023-01-05T10:21:46;22.90;;;9.77;;
33696;SDS011;20031;43.416;23.232;2023-01-05T10:29:12;26.35;;;9.70;;
33696;SDS011;20031;43.416;23.232;2023-01-05T10:34:41;24.45;;;8.68;;
33696;SDS011;20031;43.416;23.232;2023-01-05T10:40:02;17.67;;;8.98;;
33696;SDS011;20031;43.416;23.232;2023-01-05T10:45:32;23.40;;;7.97;;
33696;SDS011;20031;43.416;23.232;2023-01-05T10:47:59;16.73;;;8.30;;
33696;SDS011;20031;43.416;23.232;2023-01-05T10:53:16;37.72;;;9.90;;
33696;SDS011;20031;43.416;23.232;2023-01-05T11:01:05;14.52;;;8.50;;
33696;SDS011;20031;43.416;23.232;2023-01-05T11:03:41;52.03;;;18.83;;
33696;SDS011;20031;43.416;23.232;2023-01-05T11:06:18;20.23;;;7.55;;
33696;SDS011;20031;43.416;23.232;2023-01-05T11:08:45;25.88;;;14.15;;
33696;SDS011;20031;43.416;23.232;2023-01-05T11:11:13;31.48;;;15.23;;
33696;SDS011;20031;43.416;23.232;2023-01-05T11:13:47;27.80;;;9.13;;
33696;SDS011;20031;43.416;23.232;2023-01-05T11:16:17;24.27;;;9.70;;
33696;SDS011;20031;43.416;23.232;2023-01-05T11:18:52;15.82;;;8.30;;
33696;SDS011;20031;43.416;23.232;2023-01-05T11:21:24;17.73;;;7.65;;
33696;SDS011;20031;43.416;23.232;2023-01-05T11:23:51;23.55;;;7.45;;
33696;SDS011;20031;43.416;23.232;2023-01-05T11:29:13;26.63;;;10.13;;
33696;SDS011;20031;43.416;23.232;2023-01-05T11:34:23;21.63;;;6.50;;
33696;SDS011;20031;43.416;23.232;2023-01-05T11:36:54;11.65;;;5.45;;
33696;SDS011;20031;43.416;23.232;2023-01-05T11:39:26;11.40;;;5.28;;
33696;SDS011;20031;43.416;23.232;2023-01-05T11:42:17;36.60;;;7.25;;
33696;SDS011;20031;43.416;23.232;2023-01-05T11:47:17;12.98;;;5.47;;
33696;SDS011;20031;43.416;23.232;2023-01-05T11:50:01;13.13;;;5.28;;
33696;SDS011;20031;43.416;23.232;2023-01-05T11:52:34;19.25;;;7.13;;
33696;SDS011;20031;43.416;23.232;2023-01-05T11:57:45;10.35;;;5.53;;
33696;SDS011;20031;43.416;23.232;2023-01-05T12:00:24;9.85;;;5.70;;
33696;SDS011;20031;43.416;23.232;2023-01-05T12:03:11;11.15;;;5.63;;
33696;SDS011;20031;43.416;23.232;2023-01-05T12:05:59;12.57;;;6.88;;
33696;SDS011;20031;43.416;23.232;2023-01-05T12:08:44;20.85;;;7.63;;
33696;SDS011;20031;43.416;23.232;2023-01-05T12:11:22;21.53;;;6.53;;
33696;SDS011;20031;43.416;23.232;2023-01-05T12:14:00;17.25;;;5.15;;
33696;SDS011;20031;43.416;23.232;2023-01-05T12:16:56;8.98;;;4.63;;
33696;SDS011;20031;43.416;23.232;2023-01-05T12:32:53;24.20;;;6.07;;
33696;SDS011;20031;43.416;23.232;2023-01-05T12:46:20;27.42;;;10.63;;
33696;SDS011;20031;43.416;23.232;2023-01-05T12:48:51;19.38;;;7.28;;
33696;SDS011;20031;43.416;23.232;2023-01-05T12:51:23;17.92;;;6.45;;
33696;SDS011;20031;43.416;23.232;2023-01-05T12:53:58;18.42;;;7.22;;
33696;SDS011;20031;43.416;23.232;2023-01-05T12:56:30;33.53;;;12.20;;
33696;SDS011;20031;43.416;23.232;2023-01-05T13:01:28;16.02;;;7.10;;
33696;SDS011;20031;43.416;23.232;2023-01-05T13:04:00;17.63;;;6.70;;
33696;SDS011;20031;43.416;23.232;2023-01-05T13:06:35;12.75;;;6.78;;
33696;SDS011;20031;43.416;23.232;2023-01-05T13:09:11;17.65;;;9.70;;
33696;SDS011;20031;43.416;23.232;2023-01-05T13:12:04;22.65;;;11.20;;
33696;SDS011;20031;43.416;23.232;2023-01-05T13:14:42;19.77;;;9.80;;
33696;SDS011;20031;43.416;23.232;2023-01-05T13:19:53;16.67;;;7.40;;
33696;SDS011;20031;43.416;23.232;2023-01-05T13:22:43;16.33;;;7.55;;
33696;SDS011;20031;43.416;23.232;2023-01-05T13:27:41;15.95;;;6.78;;
33696;SDS011;20031;43.416;23.232;2023-01-05T13:30:07;15.07;;;6.72;;
33696;SDS011;20031;43.416;23.232;2023-01-05T13:35:58;10.70;;;6.53;;
33696;SDS011;20031;43.416;23.232;2023-01-05T13:41:41;17.17;;;6.03;;
33696;SDS011;20031;43.416;23.232;2023-01-05T13:55:13;32.97;;;12.20;;
33696;SDS011;20031;43.416;23.232;2023-01-05T13:57:43;66.90;;;24.20;;
33696;SDS011;20031;43.416;23.232;2023-01-05T14:00:28;41.40;;;16.50;;
33696;SDS011;20031;43.416;23.232;2023-01-05T14:05:27;166.30;;;55.10;;
33696;SDS011;20031;43.416;23.232;2023-01-05T14:07:56;147.75;;;51.80;;
33696;SDS011;20031;43.416;23.232;2023-01-05T14:10:26;85.95;;;28.33;;
33696;SDS011;20031;43.416;23.232;2023-01-05T14:12:54;44.92;;;15.30;;
33696;SDS011;20031;43.416;23.232;2023-01-05T14:15:28;50.67;;;18.02;;
33696;SDS011;20031;43.416;23.232;2023-01-05T14:18:02;51.42;;;22.35;;
33696;SDS011;20031;43.416;23.232;2023-01-05T14:20:49;57.70;;;19.85;;
33696;SDS011;20031;43.416;23.232;2023-01-05T14:25:54;36.85;;;8.77;;
33696;SDS011;20031;43.416;23.232;2023-01-05T14:31:38;29.90;;;9.63;;
33696;SDS011;20031;43.416;23.232;2023-01-05T14:33:58;52.20;;;9.65;;
33696;SDS011;20031;43.416;23.232;2023-01-05T14:36:48;32.58;;;9.50;;
33696;SDS011;20031;43.416;23.232;2023-01-05T14:39:26;32.88;;;10.18;;
33696;SDS011;20031;43.416;23.232;2023-01-05T14:44:30;75.43;;;14.35;;
33696;SDS011;20031;43.416;23.232;2023-01-05T14:47:06;44.25;;;12.50;;
33696;SDS011;20031;43.416;23.232;2023-01-05T14:49:35;60.65;;;15.20;;
33696;SDS011;20031;43.416;23.232;2023-01-05T14:52:05;139.68;;;18.10;;
33696;SDS011;20031;43.416;23.232;2023-01-05T15:00:44;169.00;;;27.88;;
33696;SDS011;20031;43.416;23.232;2023-01-05T15:05:53;120.53;;;24.98;;
33696;SDS011;20031;43.416;23.232;2023-01-05T15:08:28;99.03;;;22.73;;
33696;SDS011;20031;43.416;23.232;2023-01-05T15:11:03;90.68;;;22.63;;
33696;SDS011;20031;43.416;23.232;2023-01-05T15:34:20;243.55;;;88.93;;
33696;SDS011;20031;43.416;23.232;2023-01-05T15:39:28;262.88;;;91.60;;
33696;SDS011;20031;43.416;23.232;2023-01-05T15:41:56;340.98;;;117.35;;
33696;SDS011;20031;43.416;23.232;2023-01-05T15:44:26;271.13;;;102.32;;
33696;SDS011;20031;43.416;23.232;2023-01-05T15:46:58;271.65;;;105.68;;
33696;SDS011;20031;43.416;23.232;2023-01-05T15:49:26;274.13;;;106.00;;
33696;SDS011;20031;43.416;23.232;2023-01-05T15:51:55;249.80;;;100.97;;
33696;SDS011;20031;43.416;23.232;2023-01-05T15:54:25;247.20;;;98.90;;
33696;SDS011;20031;43.416;23.232;2023-01-05T15:56:52;250.77;;;98.35;;
33696;SDS011;20031;43.416;23.232;2023-01-05T16:01:52;232.32;;;90.45;;
33696;SDS011;20031;43.416;23.232;2023-01-05T16:04:18;228.23;;;87.70;;
33696;SDS011;20031;43.416;23.232;2023-01-05T16:06:44;201.60;;;83.97;;
33696;SDS011;20031;43.416;23.232;2023-01-05T16:09:54;195.38;;;82.30;;
33696;SDS011;20031;43.416;23.232;2023-01-05T16:12:14;202.45;;;79.50;;
33696;SDS011;20031;43.416;23.232;2023-01-05T16:14:52;249.93;;;89.70;;
33696;SDS011;20031;43.416;23.232;2023-01-05T16:17:24;241.43;;;84.82;;
33696;SDS011;20031;43.416;23.232;2023-01-05T16:19:57;295.95;;;97.25;;
33696;SDS011;20031;43.416;23.232;2023-01-05T16:25:10;222.05;;;80.10;;
33696;SDS011;20031;43.416;23.232;2023-01-05T16:27:41;204.13;;;78.70;;
33696;SDS011;20031;43.416;23.232;2023-01-05T16:30:14;204.30;;;59.53;;
33696;SDS011;20031;43.416;23.232;2023-01-05T16:33:34;184.25;;;62.22;;
33696;SDS011;20031;43.416;23.232;2023-01-05T16:35:47;197.60;;;70.65;;
33696;SDS011;20031;43.416;23.232;2023-01-05T16:38:25;186.75;;;76.70;;
33696;SDS011;20031;43.416;23.232;2023-01-05T16:43:36;205.13;;;86.47;;
33696;SDS011;20031;43.416;23.232;2023-01-05T16:51:08;265.48;;;112.10;;
33696;SDS011;20031;43.416;23.232;2023-01-05T16:53:42;283.95;;;123.22;;
33696;SDS011;20031;43.416;23.232;2023-01-05T16:58:47;293.98;;;134.82;;
33696;SDS011;20031;43.416;23.232;2023-01-05T17:03:44;319.42;;;148.40;;
33696;SDS011;20031;43.416;23.232;2023-01-05T17:06:23;261.60;;;120.03;;
33696;SDS011;20031;43.416;23.232;2023-01-05T17:08:53;183.15;;;86.03;;
33696;SDS011;20031;43.416;23.232;2023-01-05T17:11:19;155.73;;;68.28;;
33696;SDS011;20031;43.416;23.232;2023-01-05T17:13:52;56.70;;;28.48;;
33696;SDS011;20031;43.416;23.232;2023-01-05T17:16:19;40.83;;;19.73;;
33696;SDS011;20031;43.416;23.232;2023-01-05T17:18:45;28.80;;;15.63;;
33696;SDS011;20031;43.416;23.232;2023-01-05T17:21:16;33.72;;;14.63;;
33696;SDS011;20031;43.416;23.232;2023-01-05T17:23:50;29.48;;;14.23;;
33696;SDS011;20031;43.416;23.232;2023-01-05T17:28:47;28.60;;;13.32;;